sensor_id;sensor_type;location;lat;lon;timestamp;pressure;altitude;pressure_sealevel;temperature
76381;BMP280;65202;52.520;10.528;2024-01-15T00:01:31;99078.13;;;2.21
76381;BMP280;65202;52.520;10.528;2024-01-15T00:03:59;99077.03;;;2.16
76381;BMP280;65202;52.520;10.528;2024-01-15T00:06:27;99082.31;;;2.22
76381;BMP280;65202;52.520;10.528;2024-01-15T00:08:55;99067.19;;;2.16
76381;BMP280;65202;52.520;10.528;2024-01-15T00:11:25;99067.34;;;2.19
76381;BMP280;65202;52.520;10.528;2024-01-15T00:13:52;99069.19;;;2.23
76381;BMP280;65202;52.520;10.528;2024-01-15T00:16:20;99050.38;;;2.25
76381;BMP280;65202;52.520;10.528;2024-01-15T00:18:47;99058.56;;;2.24
76381;BMP280;65202;52.520;10.528;2024-01-15T00:21:15;99054.38;;;2.23
76381;BMP280;65202;52.520;10.528;2024-01-15T00:23:43;99063.31;;;2.21
76381;BMP280;65202;52.520;10.528;2024-01-15T00:26:11;99052.91;;;2.27
76381;BMP280;65202;52.520;10.528;2024-01-15T00:28:40;99047.03;;;2.25
76381;BMP280;65202;52.520;10.528;2024-01-15T00:31:07;99050.06;;;2.19
76381;BMP280;65202;52.520;10.528;2024-01-15T00:33:35;99048.75;;;2.26
76381;BMP280;65202;52.520;10.528;2024-01-15T00:36:03;99045.19;;;2.21
76381;BMP280;65202;52.520;10.528;2024-01-15T00:38:31;99037.66;;;2.18
76381;BMP280;65202;52.520;10.528;2024-01-15T00:40:58;99029.06;;;2.11
76381;BMP280;65202;52.520;10.528;2024-01-15T00:43:26;99037.09;;;2.07
76381;BMP280;65202;52.520;10.528;2024-01-15T00:45:53;99028.81;;;2.05
76381;BMP280;65202;52.520;10.528;2024-01-15T00:48:20;99025.69;;;2.09
76381;BMP280;65202;52.520;10.528;2024-01-15T00:50:48;99019.13;;;2.10
76381;BMP280;65202;52.520;10.528;2024-01-15T00:53:15;99016.13;;;2.15
76381;BMP280;65202;52.520;10.528;2024-01-15T00:55:43;99009.19;;;2.08
76381;BMP280;65202;52.520;10.528;2024-01-15T00:58:10;99003.19;;;2.03
76381;BMP280;65202;52.520;10.528;2024-01-15T01:00:38;99011.59;;;2.07
76381;BMP280;65202;52.520;10.528;2024-01-15T01:03:05;99004.03;;;2.04
76381;BMP280;65202;52.520;10.528;2024-01-15T01:05:36;99014.69;;;2.03
76381;BMP280;65202;52.520;10.528;2024-01-15T01:08:04;99013.13;;;2.05
76381;BMP280;65202;52.520;10.528;2024-01-15T01:10:32;99016.72;;;2.11
76381;BMP280;65202;52.520;10.528;2024-01-15T01:12:59;99009.97;;;2.07
76381;BMP280;65202;52.520;10.528;2024-01-15T01:15:27;99021.78;;;2.13
76381;BMP280;65202;52.520;10.528;2024-01-15T01:17:55;99011.19;;;2.15
76381;BMP280;65202;52.520;10.528;2024-01-15T01:20:22;99009.19;;;2.08
76381;BMP280;65202;52.520;10.528;2024-01-15T01:22:50;99016.13;;;2.15
76381;BMP280;65202;52.520;10.528;2024-01-15T01:25:17;99019.50;;;2.17
76381;BMP280;65202;52.520;10.528;2024-01-15T01:27:45;99019.44;;;2.16
76381;BMP280;65202;52.520;10.528;2024-01-15T01:30:12;99004.31;;;2.26
76381;BMP280;65202;52.520;10.528;2024-01-15T01:32:40;99001.78;;;2.24
76381;BMP280;65202;52.520;10.528;2024-01-15T01:35:08;98995.13;;;2.23
76381;BMP280;65202;52.520;10.528;2024-01-15T01:37:35;98985.59;;;2.13
76381;BMP280;65202;52.520;10.528;2024-01-15T01:40:04;98987.41;;;2.17
76381;BMP280;65202;52.520;10.528;2024-01-15T01:42:32;98982.19;;;2.11
76381;BMP280;65202;52.520;10.528;2024-01-15T01:45:00;98984.94;;;2.17
76381;BMP280;65202;52.520;10.528;2024-01-15T01:47:27;98986.34;;;2.12
76381;BMP280;65202;52.520;10.528;2024-01-15T01:49:55;98973.38;;;2.16
76381;BMP280;65202;52.520;10.528;2024-01-15T01:52:23;98977.19;;;2.10
76381;BMP280;65202;52.520;10.528;2024-01-15T01:54:51;98973.09;;;2.10
76381;BMP280;65202;52.520;10.528;2024-01-15T01:57:19;98986.28;;;2.11
76381;BMP280;65202;52.520;10.528;2024-01-15T01:59:47;98983.75;;;2.09
76381;BMP280;65202;52.520;10.528;2024-01-15T02:02:16;98980.66;;;2.13
76381;BMP280;65202;52.520;10.528;2024-01-15T02:04:44;98975.16;;;2.19
76381;BMP280;65202;52.520;10.528;2024-01-15T02:07:11;98993.44;;;2.22
76381;BMP280;65202;52.520;10.528;2024-01-15T02:09:39;98986.72;;;2.20
76381;BMP280;65202;52.520;10.528;2024-01-15T02:12:06;98969.38;;;2.18
76381;BMP280;65202;52.520;10.528;2024-01-15T02:14:34;98953.72;;;2.18
76381;BMP280;65202;52.520;10.528;2024-01-15T02:17:02;98947.28;;;2.21
76381;BMP280;65202;52.520;10.528;2024-01-15T02:19:29;98948.88;;;2.19
76381;BMP280;65202;52.520;10.528;2024-01-15T02:21:57;98954.56;;;2.18
76381;BMP280;65202;52.520;10.528;2024-01-15T02:24:25;98946.41;;;2.19
76381;BMP280;65202;52.520;10.528;2024-01-15T02:26:52;98940.81;;;2.23
76381;BMP280;65202;52.520;10.528;2024-01-15T02:29:20;98932.47;;;2.21
76381;BMP280;65202;52.520;10.528;2024-01-15T02:31:47;98911.19;;;2.23
76381;BMP280;65202;52.520;10.528;2024-01-15T02:34:15;98926.31;;;2.29
76381;BMP280;65202;52.520;10.528;2024-01-15T02:36:42;98928.56;;;2.25
76381;BMP280;65202;52.520;10.528;2024-01-15T02:39:10;98916.44;;;2.29
76381;BMP280;65202;52.520;10.528;2024-01-15T02:41:37;98910.56;;;2.27
76381;BMP280;65202;52.520;10.528;2024-01-15T02:44:05;98909.78;;;2.28
76381;BMP280;65202;52.520;10.528;2024-01-15T02:46:33;98914.03;;;2.31
76381;BMP280;65202;52.520;10.528;2024-01-15T02:49:00;98897.38;;;2.27
76381;BMP280;65202;52.520;10.528;2024-01-15T02:51:28;98914.72;;;2.28
76381;BMP280;65202;52.520;10.528;2024-01-15T02:53:55;98901.63;;;2.29
76381;BMP280;65202;52.520;10.528;2024-01-15T02:56:23;98908.53;;;2.36
76381;BMP280;65202;52.520;10.528;2024-01-15T02:58:50;98904.22;;;2.32
76381;BMP280;65202;52.520;10.528;2024-01-15T03:01:19;98913.31;;;2.33
76381;BMP280;65202;52.520;10.528;2024-01-15T03:03:47;98913.81;;;2.26
76381;BMP280;65202;52.520;10.528;2024-01-15T03:06:15;98919.94;;;2.17
76381;BMP280;65202;52.520;10.528;2024-01-15T03:08:42;98923.81;;;2.12
76381;BMP280;65202;52.520;10.528;2024-01-15T03:11:10;98918.94;;;2.13
76381;BMP280;65202;52.520;10.528;2024-01-15T03:13:37;98922.34;;;2.15
76381;BMP280;65202;52.520;10.528;2024-01-15T03:16:05;98927.97;;;2.13
76381;BMP280;65202;52.520;10.528;2024-01-15T03:18:33;98921.53;;;2.16
76381;BMP280;65202;52.520;10.528;2024-01-15T03:21:01;98927.34;;;2.17
76381;BMP280;65202;52.520;10.528;2024-01-15T03:23:28;98928.94;;;2.16
76381;BMP280;65202;52.520;10.528;2024-01-15T03:25:56;98917.69;;;2.21
76381;BMP280;65202;52.520;10.528;2024-01-15T03:28:24;98920.16;;;2.21
76381;BMP280;65202;52.520;10.528;2024-01-15T03:30:51;98935.06;;;2.23
76381;BMP280;65202;52.520;10.528;2024-01-15T03:33:19;98941.88;;;2.28
76381;BMP280;65202;52.520;10.528;2024-01-15T03:35:47;98927.28;;;2.33
76381;BMP280;65202;52.520;10.528;2024-01-15T03:38:15;98917.34;;;2.31
76381;BMP280;65202;52.520;10.528;2024-01-15T03:40:42;98942.19;;;2.34
76381;BMP280;65202;52.520;10.528;2024-01-15T03:43:10;98926.38;;;2.31
76381;BMP280;65202;52.520;10.528;2024-01-15T03:45:37;98937.25;;;2.34
76381;BMP280;65202;52.520;10.528;2024-01-15T03:48:05;98924.47;;;2.25
76381;BMP280;65202;52.520;10.528;2024-01-15T03:50:33;98918.75;;;2.26
76381;BMP280;65202;52.520;10.528;2024-01-15T03:53:00;98918.59;;;2.23
76381;BMP280;65202;52.520;10.528;2024-01-15T03:55:28;98914.72;;;2.28
76381;BMP280;65202;52.520;10.528;2024-01-15T03:57:55;98921.22;;;2.26
76381;BMP280;65202;52.520;10.528;2024-01-15T04:00:22;98926.31;;;2.29
76381;BMP280;65202;52.520;10.528;2024-01-15T04:02:50;98927.22;;;2.31
76381;BMP280;65202;52.520;10.528;2024-01-15T04:05:17;98918.34;;;2.35
76381;BMP280;65202;52.520;10.528;2024-01-15T04:07:45;98908.69;;;2.39
76381;BMP280;65202;52.520;10.528;2024-01-15T04:10:12;98907.00;;;2.38
76381;BMP280;65202;52.520;10.528;2024-01-15T04:12:40;98912.28;;;2.28
76381;BMP280;65202;52.520;10.528;2024-01-15T04:15:07;98913.09;;;2.29
76381;BMP280;65202;52.520;10.528;2024-01-15T04:17:35;98912.41;;;2.31
76381;BMP280;65202;52.520;10.528;2024-01-15T04:20:04;98913.31;;;2.33
76381;BMP280;65202;52.520;10.528;2024-01-15T04:22:35;98933.22;;;2.36
76381;BMP280;65202;52.520;10.528;2024-01-15T04:25:03;98917.69;;;2.21
76381;BMP280;65202;52.520;10.528;2024-01-15T04:27:31;98925.72;;;2.17
76381;BMP280;65202;52.520;10.528;2024-01-15T04:30:01;98913.88;;;2.10
76381;BMP280;65202;52.520;10.528;2024-01-15T04:32:29;98919.66;;;2.11
76381;BMP280;65202;52.520;10.528;2024-01-15T04:34:57;98920.34;;;2.08
76381;BMP280;65202;52.520;10.528;2024-01-15T04:37:24;98924.34;;;2.06
76381;BMP280;65202;52.520;10.528;2024-01-15T04:39:52;98925.41;;;2.11
76381;BMP280;65202;52.520;10.528;2024-01-15T04:42:22;98906.59;;;2.13
76381;BMP280;65202;52.520;10.528;2024-01-15T04:44:49;98917.41;;;2.15
76381;BMP280;65202;52.520;10.528;2024-01-15T04:47:20;98913.31;;;2.16
76381;BMP280;65202;52.520;10.528;2024-01-15T04:49:47;98904.38;;;2.18
76381;BMP280;65202;52.520;10.528;2024-01-15T04:52:16;98908.44;;;2.17
76381;BMP280;65202;52.520;10.528;2024-01-15T04:54:43;98910.84;;;2.16
76381;BMP280;65202;52.520;10.528;2024-01-15T04:57:11;98902.72;;;2.18
76381;BMP280;65202;52.520;10.528;2024-01-15T04:59:38;98918.59;;;2.23
76381;BMP280;65202;52.520;10.528;2024-01-15T05:02:06;98910.38;;;2.23
76381;BMP280;65202;52.520;10.528;2024-01-15T05:04:34;98916.97;;;2.24
76381;BMP280;65202;52.520;10.528;2024-01-15T05:07:02;98923.63;;;2.25
76381;BMP280;65202;52.520;10.528;2024-01-15T05:09:29;98907.19;;;2.25
76381;BMP280;65202;52.520;10.528;2024-01-15T05:11:59;98907.47;;;2.31
76381;BMP280;65202;52.520;10.528;2024-01-15T05:14:29;98913.97;;;2.29
76381;BMP280;65202;52.520;10.528;2024-01-15T05:16:56;98914.88;;;2.31
76381;BMP280;65202;52.520;10.528;2024-01-15T05:19:24;98909.78;;;2.28
76381;BMP280;65202;52.520;10.528;2024-01-15T05:21:51;98919.03;;;2.32
76381;BMP280;65202;52.520;10.528;2024-01-15T05:24:19;98933.09;;;2.33
76381;BMP280;65202;52.520;10.528;2024-01-15T05:26:46;98933.09;;;2.33
76381;BMP280;65202;52.520;10.528;2024-01-15T05:29:14;98945.50;;;2.35
76381;BMP280;65202;52.520;10.528;2024-01-15T05:31:41;98935.59;;;2.17
76381;BMP280;65202;52.520;10.528;2024-01-15T05:34:09;98928.69;;;2.10
76381;BMP280;65202;52.520;10.528;2024-01-15T05:36:36;98928.16;;;2.00
76381;BMP280;65202;52.520;10.528;2024-01-15T05:39:04;98930.47;;;1.97
76381;BMP280;65202;52.520;10.528;2024-01-15T05:41:31;98938.78;;;1.99
76381;BMP280;65202;52.520;10.528;2024-01-15T05:43:58;98933.16;;;2.01
76381;BMP280;65202;52.520;10.528;2024-01-15T05:46:26;98932.94;;;1.97
76381;BMP280;65202;52.520;10.528;2024-01-15T05:48:53;98934.16;;;2.05
76381;BMP280;65202;52.520;10.528;2024-01-15T05:51:21;98922.75;;;2.07
76381;BMP280;65202;52.520;10.528;2024-01-15T05:53:48;98923.13;;;2.14
76381;BMP280;65202;52.520;10.528;2024-01-15T05:56:18;98916.81;;;2.03
76381;BMP280;65202;52.520;10.528;2024-01-15T05:58:46;98930.34;;;2.11
76381;BMP280;65202;52.520;10.528;2024-01-15T06:01:13;98925.41;;;2.11
76381;BMP280;65202;52.520;10.528;2024-01-15T06:03:40;98913.72;;;2.07
76381;BMP280;65202;52.520;10.528;2024-01-15T06:06:08;98918.25;;;2.16
76381;BMP280;65202;52.520;10.528;2024-01-15T06:08:37;98916.91;;;2.22
76381;BMP280;65202;52.520;10.528;2024-01-15T06:11:06;98916.97;;;2.24
76381;BMP280;65202;52.520;10.528;2024-01-15T06:13:33;98929.13;;;2.19
76381;BMP280;65202;52.520;10.528;2024-01-15T06:16:01;98922.34;;;2.15
76381;BMP280;65202;52.520;10.528;2024-01-15T06:18:28;98919.06;;;2.16
76381;BMP280;65202;52.520;10.528;2024-01-15T06:20:56;98928.41;;;2.22
76381;BMP280;65202;52.520;10.528;2024-01-15T06:23:23;98926.59;;;2.18
76381;BMP280;65202;52.520;10.528;2024-01-15T06:25:51;98924.19;;;2.19
76381;BMP280;65202;52.520;10.528;2024-01-15T06:28:18;98934.47;;;2.28
76381;BMP280;65202;52.520;10.528;2024-01-15T06:30:46;98926.72;;;2.21
76381;BMP280;65202;52.520;10.528;2024-01-15T06:33:13;98921.78;;;2.21
76381;BMP280;65202;52.520;10.528;2024-01-15T06:35:43;98933.13;;;2.17
76381;BMP280;65202;52.520;10.528;2024-01-15T06:38:11;98933.13;;;2.17
76381;BMP280;65202;52.520;10.528;2024-01-15T06:40:38;98934.13;;;2.21
76381;BMP280;65202;52.520;10.528;2024-01-15T06:43:08;98945.31;;;2.14
76381;BMP280;65202;52.520;10.528;2024-01-15T06:45:36;98942.50;;;2.07
76381;BMP280;65202;52.520;10.528;2024-01-15T06:48:04;98950.53;;;2.03
76381;BMP280;65202;52.520;10.528;2024-01-15T06:50:32;98951.50;;;2.06
76381;BMP280;65202;52.520;10.528;2024-01-15T06:53:00;98955.66;;;2.07
76381;BMP280;65202;52.520;10.528;2024-01-15T06:55:28;98943.31;;;2.07
76381;BMP280;65202;52.520;10.528;2024-01-15T06:57:55;98954.75;;;2.05
76381;BMP280;65202;52.520;10.528;2024-01-15T07:00:23;98949.81;;;2.05
76381;BMP280;65202;52.520;10.528;2024-01-15T07:02:50;98939.97;;;2.05
76381;BMP280;65202;52.520;10.528;2024-01-15T07:05:20;98941.09;;;2.12
76381;BMP280;65202;52.520;10.528;2024-01-15T07:07:48;98946.41;;;2.03
76381;BMP280;65202;52.520;10.528;2024-01-15T07:10:15;98944.19;;;2.08
76381;BMP280;65202;52.520;10.528;2024-01-15T07:12:43;98947.03;;;2.15
76381;BMP280;65202;52.520;10.528;2024-01-15T07:15:11;98947.56;;;2.10
76381;BMP280;65202;52.520;10.528;2024-01-15T07:17:38;98953.38;;;2.10
76381;BMP280;65202;52.520;10.528;2024-01-15T07:20:10;98949.13;;;2.08
76381;BMP280;65202;52.520;10.528;2024-01-15T07:22:38;98953.50;;;2.13
76381;BMP280;65202;52.520;10.528;2024-01-15T07:25:06;98966.91;;;2.18
76381;BMP280;65202;52.520;10.528;2024-01-15T07:27:34;98966.91;;;2.18
76381;BMP280;65202;52.520;10.528;2024-01-15T07:30:01;98961.13;;;2.18
76381;BMP280;65202;52.520;10.528;2024-01-15T07:32:31;98961.28;;;2.21
76381;BMP280;65202;52.520;10.528;2024-01-15T07:34:59;98957.75;;;2.16
76381;BMP280;65202;52.520;10.528;2024-01-15T07:37:26;98946.00;;;3.16
76381;BMP280;65202;52.520;10.528;2024-01-15T07:39:54;98953.66;;;4.16
76381;BMP280;65202;52.520;10.528;2024-01-15T07:42:21;98952.19;;;3.62
76381;BMP280;65202;52.520;10.528;2024-01-15T07:44:49;98964.91;;;2.62
76381;BMP280;65202;52.520;10.528;2024-01-15T07:47:18;98964.34;;;2.50
76381;BMP280;65202;52.520;10.528;2024-01-15T07:49:46;98960.59;;;2.41
76381;BMP280;65202;52.520;10.528;2024-01-15T07:52:14;98957.13;;;2.37
76381;BMP280;65202;52.520;10.528;2024-01-15T07:54:41;98958.06;;;2.39
76381;BMP280;65202;52.520;10.528;2024-01-15T07:57:08;98963.00;;;2.39
76381;BMP280;65202;52.520;10.528;2024-01-15T07:59:36;98950.56;;;2.38
76381;BMP280;65202;52.520;10.528;2024-01-15T08:02:03;98964.41;;;2.34
76381;BMP280;65202;52.520;10.528;2024-01-15T08:04:31;98956.84;;;2.31
76381;BMP280;65202;52.520;10.528;2024-01-15T08:06:59;98955.22;;;2.32
76381;BMP280;65202;52.520;10.528;2024-01-15T08:09:26;98961.31;;;2.38
76381;BMP280;65202;52.520;10.528;2024-01-15T08:11:53;98963.84;;;2.40
76381;BMP280;65202;52.520;10.528;2024-01-15T08:14:21;98971.00;;;2.35
76381;BMP280;65202;52.520;10.528;2024-01-15T08:16:48;98964.56;;;2.21
76381;BMP280;65202;52.520;10.528;2024-01-15T08:19:16;98969.63;;;2.23
76381;BMP280;65202;52.520;10.528;2024-01-15T08:21:44;98973.84;;;2.25
76381;BMP280;65202;52.520;10.528;2024-01-15T08:24:11;98964.50;;;2.20
76381;BMP280;65202;52.520;10.528;2024-01-15T08:26:39;98974.28;;;2.34
76381;BMP280;65202;52.520;10.528;2024-01-15T08:29:06;98976.13;;;2.38
76381;BMP280;65202;52.520;10.528;2024-01-15T08:31:33;98967.78;;;2.36
76381;BMP280;65202;52.520;10.528;2024-01-15T08:34:01;98979.50;;;2.40
76381;BMP280;65202;52.520;10.528;2024-01-15T08:36:29;98971.88;;;2.36
76381;BMP280;65202;52.520;10.528;2024-01-15T08:38:57;98979.34;;;2.37
76381;BMP280;65202;52.520;10.528;2024-01-15T08:41:25;98972.31;;;2.45
76381;BMP280;65202;52.520;10.528;2024-01-15T08:43:52;98972.88;;;2.39
76381;BMP280;65202;52.520;10.528;2024-01-15T08:46:20;98982.81;;;2.41
76381;BMP280;65202;52.520;10.528;2024-01-15T08:48:47;98975.69;;;2.29
76381;BMP280;65202;52.520;10.528;2024-01-15T08:51:15;98976.19;;;2.40
76381;BMP280;65202;52.520;10.528;2024-01-15T08:53:42;98988.22;;;2.34
76381;BMP280;65202;52.520;10.528;2024-01-15T08:56:11;98987.84;;;2.26
76381;BMP280;65202;52.520;10.528;2024-01-15T08:58:39;98988.16;;;2.32
76381;BMP280;65202;52.520;10.528;2024-01-15T09:01:06;98985.25;;;2.23
76381;BMP280;65202;52.520;10.528;2024-01-15T09:03:34;98986.09;;;2.24
76381;BMP280;65202;52.520;10.528;2024-01-15T09:06:02;98987.41;;;2.17
76381;BMP280;65202;52.520;10.528;2024-01-15T09:08:30;98992.47;;;2.03
76381;BMP280;65202;52.520;10.528;2024-01-15T09:10:57;98990.84;;;2.03
76381;BMP280;65202;52.520;10.528;2024-01-15T09:13:25;98992.69;;;2.07
76381;BMP280;65202;52.520;10.528;2024-01-15T09:15:52;98996.41;;;1.99
76381;BMP280;65202;52.520;10.528;2024-01-15T09:18:20;98997.47;;;2.04
76381;BMP280;65202;52.520;10.528;2024-01-15T09:20:47;99002.09;;;1.98
76381;BMP280;65202;52.520;10.528;2024-01-15T09:23:15;98998.63;;;1.95
76381;BMP280;65202;52.520;10.528;2024-01-15T09:25:42;99005.34;;;1.97
76381;BMP280;65202;52.520;10.528;2024-01-15T09:28:10;99007.19;;;2.01
76381;BMP280;65202;52.520;10.528;2024-01-15T09:30:37;99009.75;;;2.03
76381;BMP280;65202;52.520;10.528;2024-01-15T09:33:05;99014.19;;;2.10
76381;BMP280;65202;52.520;10.528;2024-01-15T09:35:32;99011.53;;;2.05
76381;BMP280;65202;52.520;10.528;2024-01-15T09:38:00;99022.09;;;2.03
76381;BMP280;65202;52.520;10.528;2024-01-15T09:40:30;99033.72;;;2.05
76381;BMP280;65202;52.520;10.528;2024-01-15T09:43:01;99024.00;;;2.08
76381;BMP280;65202;52.520;10.528;2024-01-15T09:45:29;99028.56;;;2.17
76381;BMP280;65202;52.520;10.528;2024-01-15T09:47:57;99024.00;;;2.08
76381;BMP280;65202;52.520;10.528;2024-01-15T09:50:25;99022.78;;;2.00
76381;BMP280;65202;52.520;10.528;2024-01-15T09:52:54;99022.84;;;2.02
76381;BMP280;65202;52.520;10.528;2024-01-15T09:55:24;99020.56;;;1.89
76381;BMP280;65202;52.520;10.528;2024-01-15T09:57:52;99020.31;;;2.00
76381;BMP280;65202;52.520;10.528;2024-01-15T10:00:23;99015.53;;;2.03
76381;BMP280;65202;52.520;10.528;2024-01-15T10:02:50;99006.84;;;2.11
76381;BMP280;65202;52.520;10.528;2024-01-15T10:05:18;99012.97;;;2.18
76381;BMP280;65202;52.520;10.528;2024-01-15T10:07:45;99013.69;;;2.33
76381;BMP280;65202;52.520;10.528;2024-01-15T10:10:17;99018.28;;;2.43
76381;BMP280;65202;52.520;10.528;2024-01-15T10:12:44;99017.47;;;2.42
76381;BMP280;65202;52.520;10.528;2024-01-15T10:15:12;99007.72;;;2.45
76381;BMP280;65202;52.520;10.528;2024-01-15T10:17:40;99013.72;;;2.50
76381;BMP280;65202;52.520;10.528;2024-01-15T10:20:11;99016.50;;;2.56
76381;BMP280;65202;52.520;10.528;2024-01-15T10:22:44;99016.09;;;2.64
76381;BMP280;65202;52.520;10.528;2024-01-15T10:25:13;99014.25;;;2.60
76381;BMP280;65202;52.520;10.528;2024-01-15T10:27:42;99016.09;;;2.64
76381;BMP280;65202;52.520;10.528;2024-01-15T10:30:10;99022.03;;;2.68
76381;BMP280;65202;52.520;10.528;2024-01-15T10:32:39;99023.13;;;2.57
76381;BMP280;65202;52.520;10.528;2024-01-15T10:35:08;99019.97;;;2.59
76381;BMP280;65202;52.520;10.528;2024-01-15T10:37:35;99016.78;;;2.62
76381;BMP280;65202;52.520;10.528;2024-01-15T10:40:03;99018.06;;;2.54
76381;BMP280;65202;52.520;10.528;2024-01-15T10:42:34;99016.19;;;2.50
76381;BMP280;65202;52.520;10.528;2024-01-15T10:45:02;99018.19;;;2.57
76381;BMP280;65202;52.520;10.528;2024-01-15T10:47:30;99014.09;;;2.57
76381;BMP280;65202;52.520;10.528;2024-01-15T10:49:58;99011.69;;;2.59
76381;BMP280;65202;52.520;10.528;2024-01-15T10:52:27;99009.91;;;2.56
76381;BMP280;65202;52.520;10.528;2024-01-15T10:54:56;99015.84;;;2.60
76381;BMP280;65202;52.520;10.528;2024-01-15T10:57:26;99024.97;;;2.61
76381;BMP280;65202;52.520;10.528;2024-01-15T10:59:53;99018.19;;;2.57
76381;BMP280;65202;52.520;10.528;2024-01-15T11:02:21;99019.56;;;2.68
76381;BMP280;65202;52.520;10.528;2024-01-15T11:04:48;99018.91;;;2.54
76381;BMP280;65202;52.520;10.528;2024-01-15T11:07:16;99013.56;;;2.63
76381;BMP280;65202;52.520;10.528;2024-01-15T11:09:45;99007.69;;;2.61
76381;BMP280;65202;52.520;10.528;2024-01-15T11:12:14;99017.50;;;2.59
76381;BMP280;65202;52.520;10.528;2024-01-15T11:14:47;99019.47;;;2.66
76381;BMP280;65202;52.520;10.528;2024-01-15T11:17:17;99026.59;;;2.60
76381;BMP280;65202;52.520;10.528;2024-01-15T11:19:47;99011.84;;;2.62
76381;BMP280;65202;52.520;10.528;2024-01-15T11:25:12;99013.03;;;2.70
76381;BMP280;65202;52.520;10.528;2024-01-15T11:27:42;99023.94;;;2.73
76381;BMP280;65202;52.520;10.528;2024-01-15T11:30:12;99022.28;;;2.74
76381;BMP280;65202;52.520;10.528;2024-01-15T11:32:40;99008.19;;;2.71
76381;BMP280;65202;52.520;10.528;2024-01-15T11:35:09;99024.56;;;2.69
76381;BMP280;65202;52.520;10.528;2024-01-15T11:40:19;99026.47;;;2.75
76381;BMP280;65202;52.520;10.528;2024-01-15T11:43:09;99017.50;;;2.77
76381;BMP280;65202;52.520;10.528;2024-01-15T11:45:38;99020.53;;;2.71
76381;BMP280;65202;52.520;10.528;2024-01-15T11:50:40;99017.63;;;2.62
76381;BMP280;65202;52.520;10.528;2024-01-15T11:53:26;99029.22;;;2.63
76381;BMP280;65202;52.520;10.528;2024-01-15T11:56:06;99030.69;;;2.60
76381;BMP280;65202;52.520;10.528;2024-01-15T11:58:43;99026.81;;;2.65
76381;BMP280;65202;52.520;10.528;2024-01-15T12:01:11;99025.97;;;2.64
76381;BMP280;65202;52.520;10.528;2024-01-15T12:03:39;99022.28;;;2.74
76381;BMP280;65202;52.520;10.528;2024-01-15T12:06:07;99023.00;;;2.71
76381;BMP280;65202;52.520;10.528;2024-01-15T12:08:36;99014.88;;;2.74
76381;BMP280;65202;52.520;10.528;2024-01-15T12:11:06;99018.16;;;2.73
76381;BMP280;65202;52.520;10.528;2024-01-15T12:13:40;99010.88;;;2.76
76381;BMP280;65202;52.520;10.528;2024-01-15T12:16:08;99007.91;;;2.65
76381;BMP280;65202;52.520;10.528;2024-01-15T12:18:35;99015.47;;;2.68
76381;BMP280;65202;52.520;10.528;2024-01-15T12:21:04;99006.56;;;2.72
76381;BMP280;65202;52.520;10.528;2024-01-15T12:23:31;99014.75;;;2.71
76381;BMP280;65202;52.520;10.528;2024-01-15T12:25:58;99008.69;;;2.82
76381;BMP280;65202;52.520;10.528;2024-01-15T12:28:27;99011.09;;;2.80
76381;BMP280;65202;52.520;10.528;2024-01-15T12:30:55;99007.88;;;2.83
76381;BMP280;65202;52.520;10.528;2024-01-15T12:33:22;99006.34;;;2.85
76381;BMP280;65202;52.520;10.528;2024-01-15T12:35:53;99014.34;;;2.79
76381;BMP280;65202;52.520;10.528;2024-01-15T12:38:20;99020.53;;;2.89
76381;BMP280;65202;52.520;10.528;2024-01-15T12:40:48;99016.09;;;2.82
76381;BMP280;65202;52.520;10.528;2024-01-15T12:43:15;99017.78;;;2.83
76381;BMP280;65202;52.520;10.528;2024-01-15T12:45:45;99008.06;;;2.86
76381;BMP280;65202;52.520;10.528;2024-01-15T12:48:14;99008.47;;;2.95
76381;BMP280;65202;52.520;10.528;2024-01-15T12:50:45;99011.53;;;2.89
76381;BMP280;65202;52.520;10.528;2024-01-15T12:53:12;99013.84;;;2.86
76381;BMP280;65202;52.520;10.528;2024-01-15T12:55:40;99013.28;;;2.92
76381;BMP280;65202;52.520;10.528;2024-01-15T12:58:07;99008.81;;;2.85
76381;BMP280;65202;52.520;10.528;2024-01-15T13:00:35;99004.94;;;2.90
76381;BMP280;65202;52.520;10.528;2024-01-15T13:03:02;99010.25;;;2.97
76381;BMP280;65202;52.520;10.528;2024-01-15T13:05:32;99007.47;;;2.91
76381;BMP280;65202;52.520;10.528;2024-01-15T13:08:01;99010.22;;;2.80
76381;BMP280;65202;52.520;10.528;2024-01-15T13:10:28;99032.16;;;2.74
76381;BMP280;65202;52.520;10.528;2024-01-15T13:12:57;99018.22;;;2.74
76381;BMP280;65202;52.520;10.528;2024-01-15T13:15:25;99019.06;;;2.75
76381;BMP280;65202;52.520;10.528;2024-01-15T13:17:52;99018.91;;;2.72
76381;BMP280;65202;52.520;10.528;2024-01-15T13:20:20;99015.53;;;2.70
76381;BMP280;65202;52.520;10.528;2024-01-15T13:22:47;99019.00;;;2.73
76381;BMP280;65202;52.520;10.528;2024-01-15T13:25:15;99031.91;;;2.68
76381;BMP280;65202;52.520;10.528;2024-01-15T13:27:43;99020.31;;;2.67
76381;BMP280;65202;52.520;10.528;2024-01-15T13:30:11;99021.47;;;2.73
76381;BMP280;65202;52.520;10.528;2024-01-15T13:32:40;99023.69;;;2.69
76381;BMP280;65202;52.520;10.528;2024-01-15T13:35:08;99026.25;;;2.70
76381;BMP280;65202;52.520;10.528;2024-01-15T13:37:37;99033.84;;;2.57
76381;BMP280;65202;52.520;10.528;2024-01-15T13:40:05;99032.16;;;2.56
76381;BMP280;65202;52.520;10.528;2024-01-15T13:42:35;99022.69;;;2.48
76381;BMP280;65202;52.520;10.528;2024-01-15T13:45:08;99032.41;;;2.45
76381;BMP280;65202;52.520;10.528;2024-01-15T13:47:36;99030.13;;;2.48
76381;BMP280;65202;52.520;10.528;2024-01-15T13:50:04;99032.41;;;2.45
76381;BMP280;65202;52.520;10.528;2024-01-15T13:52:32;99040.75;;;2.47
76381;BMP280;65202;52.520;10.528;2024-01-15T13:55:00;99034.34;;;2.50
76381;BMP280;65202;52.520;10.528;2024-01-15T13:57:28;99040.00;;;2.48
76381;BMP280;65202;52.520;10.528;2024-01-15T13:59:55;99035.25;;;2.52
76381;BMP280;65202;52.520;10.528;2024-01-15T14:02:22;99038.97;;;2.60
76381;BMP280;65202;52.520;10.528;2024-01-15T14:04:52;99039.94;;;2.64
76381;BMP280;65202;52.520;10.528;2024-01-15T14:07:20;99036.56;;;2.62
76381;BMP280;65202;52.520;10.528;2024-01-15T14:09:48;99035.84;;;2.64
76381;BMP280;65202;52.520;10.528;2024-01-15T14:12:16;99036.69;;;2.65
76381;BMP280;65202;52.520;10.528;2024-01-15T14:14:43;99037.03;;;2.55
76381;BMP280;65202;52.520;10.528;2024-01-15T14:17:10;99033.16;;;2.60
76381;BMP280;65202;52.520;10.528;2024-01-15T14:19:38;99043.19;;;2.63
76381;BMP280;65202;52.520;10.528;2024-01-15T14:22:06;99035.25;;;2.52